createdAt,value
2022-12-23T00:02:16.388Z,25.50
2022-12-23T00:05:19.507Z,26.73
2022-12-23T00:08:23.439Z,33.30
2022-12-23T00:11:26.894Z,27.30
2022-12-23T00:14:47.110Z,26.90
2022-12-23T00:17:51.108Z,25.90
2022-12-23T00:21:03.341Z,24.40
2022-12-23T00:24:09.496Z,25.07
2022-12-23T00:27:12.083Z,27.80
2022-12-23T00:30:14.887Z,26.03
2022-12-23T00:33:23.381Z,26.83
2022-12-23T00:36:28.245Z,32.80
2022-12-23T00:39:52.081Z,29.83
2022-12-23T00:42:57.434Z,25.13
2022-12-23T00:46:00.106Z,28.17
2022-12-23T00:49:21.698Z,26.67
2022-12-23T00:52:24.270Z,29.07
2022-12-23T00:55:26.904Z,28.50
2022-12-23T00:58:29.588Z,28.50
2022-12-23T01:01:50.111Z,23.37
2022-12-23T01:05:11.606Z,26.73
2022-12-23T01:08:14.317Z,25.57
2022-12-23T01:11:16.884Z,29.80
2022-12-23T01:14:19.471Z,28.33
2022-12-23T01:17:22.249Z,30.67
2022-12-23T01:20:26.411Z,23.87
2022-12-23T01:23:29.018Z,25.50
2022-12-23T01:26:31.661Z,26.87
2022-12-23T01:29:34.253Z,25.20
2022-12-23T01:32:37.004Z,25.13
2022-12-23T01:35:40.943Z,26.57
2022-12-23T01:38:43.753Z,24.90
2022-12-23T01:42:03.790Z,25.20
2022-12-23T01:45:12.281Z,26.60
2022-12-23T01:48:18.395Z,30.67
2022-12-23T01:51:27.167Z,31.30
2022-12-23T01:54:29.759Z,24.97
2022-12-23T01:57:32.482Z,26.60
2022-12-23T02:00:52.833Z,32.10
2022-12-23T02:03:58.642Z,27.43
2022-12-23T02:07:20.318Z,27.47
2022-12-23T02:10:30.234Z,26.37
2022-12-23T02:13:39.282Z,31.40
2022-12-23T02:16:50.090Z,27.93
2022-12-23T02:20:17.713Z,31.87
2022-12-23T02:24:03.563Z,33.03
2022-12-23T02:27:19.973Z,29.87
2022-12-23T02:30:43.804Z,30.73
2022-12-23T02:33:59.247Z,27.93
2022-12-23T02:37:08.271Z,31.30
2022-12-23T02:40:14.464Z,33.13
2022-12-23T02:43:21.755Z,30.70
2022-12-23T02:46:34.047Z,34.60
2022-12-23T02:49:40.820Z,37.93
2022-12-23T02:52:46.510Z,39.97
2022-12-23T02:55:51.498Z,36.53
2022-12-23T02:58:57.807Z,41.27
2022-12-23T03:02:02.441Z,39.90
2022-12-23T03:05:05.639Z,33.90
2022-12-23T03:08:14.687Z,33.87
2022-12-23T03:11:18.711Z,36.13
2022-12-23T03:14:42.942Z,33.77
2022-12-23T03:18:00.274Z,37.27
2022-12-23T03:21:09.584Z,36.93
2022-12-23T03:24:22.727Z,30.60
2022-12-23T03:27:28.950Z,31.93
2022-12-23T03:30:35.288Z,28.23
2022-12-23T03:33:43.253Z,29.03
2022-12-23T03:36:50.194Z,29.90
2022-12-23T03:39:55.721Z,38.87
2022-12-23T03:43:04.192Z,40.07
2022-12-23T03:46:12.198Z,39.70
2022-12-23T03:49:20.521Z,38.07
2022-12-23T03:52:28.825Z,43.37
2022-12-23T03:55:35.459Z,37.67
2022-12-23T03:58:43.475Z,32.47
2022-12-23T04:01:56.100Z,31.33
2022-12-23T04:05:18.252Z,28.90
2022-12-23T04:08:25.234Z,34.87
2022-12-23T04:11:27.877Z,34.57
2022-12-23T04:14:31.420Z,30.07
2022-12-23T04:17:34.499Z,35.30
2022-12-23T04:20:38.585Z,36.57
2022-12-23T04:23:41.213Z,37.47
2022-12-23T04:26:43.798Z,35.37
2022-12-23T04:29:46.672Z,35.27
2022-12-23T04:32:49.275Z,37.00
2022-12-23T04:35:53.221Z,36.90
2022-12-23T04:38:55.805Z,38.37
2022-12-23T04:41:58.403Z,35.20
2022-12-23T04:45:00.976Z,45.13
2022-12-23T04:48:03.574Z,39.97
2022-12-23T04:51:07.566Z,41.70
2022-12-23T04:54:10.176Z,46.97
2022-12-23T04:57:12.829Z,47.10
2022-12-23T05:00:16.400Z,42.37
2022-12-23T05:03:19.123Z,40.30
2022-12-23T05:06:23.185Z,41.20
2022-12-23T05:09:25.892Z,36.27
2022-12-23T05:12:29.561Z,39.73
2022-12-23T05:15:32.999Z,50.53
2022-12-23T05:18:35.687Z,40.40
2022-12-23T05:21:39.643Z,42.00
2022-12-23T05:24:42.211Z,38.60
2022-12-23T05:27:44.789Z,41.13
2022-12-23T05:30:47.573Z,43.07
2022-12-23T05:33:50.241Z,43.40
2022-12-23T05:36:54.297Z,45.33
2022-12-23T05:39:56.879Z,44.20
2022-12-23T05:43:00.188Z,47.27
2022-12-23T05:46:02.857Z,45.27
2022-12-23T05:49:05.479Z,51.17
2022-12-23T05:52:09.413Z,48.43
2022-12-23T05:55:11.987Z,53.10
2022-12-23T05:58:14.673Z,52.43
2022-12-23T06:01:17.342Z,51.50
2022-12-23T06:04:20.280Z,54.87
2022-12-23T06:07:24.254Z,54.80
2022-12-23T06:10:26.839Z,52.23
2022-12-23T06:13:29.443Z,56.00
2022-12-23T06:16:32.122Z,56.67
2022-12-23T06:19:34.732Z,55.33
2022-12-23T06:22:38.737Z,55.03
2022-12-23T06:25:41.356Z,64.27
2022-12-23T06:28:43.987Z,57.73
2022-12-23T06:31:46.641Z,71.77
2022-12-23T06:34:53.112Z,59.63
2022-12-23T06:37:57.097Z,63.60
2022-12-23T06:40:59.713Z,63.87
2022-12-23T06:44:02.291Z,57.40
2022-12-23T06:47:04.966Z,64.30
2022-12-23T06:50:09.026Z,70.23
2022-12-23T06:53:13.281Z,70.90
2022-12-23T06:56:15.867Z,68.10
2022-12-23T06:59:18.475Z,68.73
2022-12-23T07:02:21.241Z,64.73
2022-12-23T07:05:23.993Z,73.13
2022-12-23T07:08:27.939Z,73.60
2022-12-23T07:11:30.686Z,69.03
2022-12-23T07:14:33.266Z,79.50
2022-12-23T07:17:36.155Z,67.93
2022-12-23T07:20:38.807Z,69.10
2022-12-23T07:23:42.751Z,67.73
2022-12-23T07:26:45.337Z,56.10
2022-12-23T07:29:47.900Z,63.20
2022-12-23T07:32:51.109Z,60.77
2022-12-23T07:35:59.015Z,56.57
2022-12-23T07:39:02.957Z,59.20
2022-12-23T07:45:29.666Z,61.20
2022-12-23T07:48:32.294Z,53.10
2022-12-23T07:51:35.030Z,57.67
2022-12-23T07:54:40.051Z,58.47
2022-12-23T07:57:42.628Z,56.43
2022-12-23T08:00:45.281Z,58.47
2022-12-23T08:03:48.578Z,58.03
2022-12-23T08:06:51.199Z,60.07
2022-12-23T08:09:55.187Z,58.93
2022-12-23T08:13:00.958Z,63.20
2022-12-23T08:16:05.384Z,58.17
2022-12-23T08:19:08.022Z,62.97
2022-12-23T08:22:10.611Z,57.67
2022-12-23T08:25:14.831Z,57.43
2022-12-23T08:28:17.401Z,55.87
2022-12-23T08:31:23.071Z,63.60
2022-12-23T08:34:26.175Z,68.13
2022-12-23T08:37:28.756Z,57.03
2022-12-23T08:40:32.787Z,60.40
2022-12-23T08:43:36.139Z,57.07
2022-12-23T08:46:39.469Z,74.67
2022-12-23T08:49:42.105Z,64.10
2022-12-23T08:52:44.757Z,62.43
2022-12-23T08:55:49.752Z,66.73
2022-12-23T08:58:54.641Z,67.07
2022-12-23T09:01:59.670Z,63.63
2022-12-23T09:05:02.453Z,75.43
2022-12-23T09:08:05.423Z,72.70
2022-12-23T09:11:11.339Z,73.40
2022-12-23T09:14:15.241Z,66.83
2022-12-23T09:17:18.216Z,59.47
2022-12-23T09:20:20.818Z,66.17
2022-12-23T09:23:23.426Z,71.10
2022-12-23T09:26:29.206Z,76.77
2022-12-23T09:29:31.777Z,66.60
2022-12-23T09:32:34.362Z,93.33
2022-12-23T09:35:36.993Z,75.87
2022-12-23T09:38:39.551Z,65.73
2022-12-23T09:42:01.393Z,58.77
2022-12-23T09:45:14.442Z,106.47
2022-12-23T09:48:21.375Z,64.87
2022-12-23T09:51:24.683Z,57.23
2022-12-23T09:54:29.746Z,53.07
2022-12-23T09:57:38.122Z,52.67
2022-12-23T10:00:44.727Z,53.50
2022-12-23T10:04:15.811Z,54.67
2022-12-23T10:07:26.940Z,47.73
2022-12-23T10:10:35.930Z,49.40
2022-12-23T10:13:43.035Z,46.17
2022-12-23T10:16:49.288Z,48.47
2022-12-23T10:19:52.588Z,52.10
2022-12-23T10:22:58.082Z,54.93
2022-12-23T10:26:04.750Z,55.53
2022-12-23T10:29:19.248Z,53.03
2022-12-23T10:32:33.350Z,54.90
2022-12-23T10:35:50.395Z,54.43
2022-12-23T10:39:02.525Z,53.00
2022-12-23T10:42:18.103Z,51.07
2022-12-23T10:45:33.810Z,54.23
2022-12-23T10:48:49.650Z,54.27
2022-12-23T10:51:57.737Z,50.90
2022-12-23T10:55:00.328Z,52.73
2022-12-23T10:58:08.499Z,57.73
2022-12-23T11:01:26.215Z,57.80
2022-12-23T11:04:35.426Z,54.83
2022-12-23T11:07:46.192Z,51.53
2022-12-23T11:10:49.894Z,55.47
2022-12-23T11:13:52.523Z,51.57
2022-12-23T11:16:56.501Z,54.70
2022-12-23T11:20:13.747Z,53.67
2022-12-23T11:23:26.913Z,47.37
2022-12-23T11:26:29.520Z,46.13
2022-12-23T11:29:35.123Z,47.87
2022-12-23T11:32:39.135Z,46.67
2022-12-23T11:35:41.806Z,52.73
2022-12-23T11:38:50.656Z,43.47
2022-12-23T11:41:55.809Z,45.57
2022-12-23T11:45:00.851Z,43.33
2022-12-23T11:48:06.088Z,43.17
2022-12-23T11:51:08.696Z,42.80
2022-12-23T11:54:17.179Z,46.13
2022-12-23T11:57:24.487Z,41.97
2022-12-23T12:00:30.248Z,46.57
2022-12-23T12:03:36.516Z,48.53
2022-12-23T12:06:48.429Z,45.57
2022-12-23T12:09:58.272Z,55.67
2022-12-23T12:13:06.076Z,46.83
2022-12-23T12:16:23.406Z,47.77
2022-12-23T12:19:32.755Z,39.70
2022-12-23T12:22:42.390Z,40.00
2022-12-23T12:25:50.526Z,39.27
2022-12-23T12:28:59.373Z,39.90
2022-12-23T12:32:03.187Z,35.60
2022-12-23T12:35:13.750Z,38.97
2022-12-23T12:38:22.799Z,35.87
2022-12-23T12:41:30.187Z,35.17
2022-12-23T12:44:39.158Z,40.20
2022-12-23T12:47:58.477Z,39.43
2022-12-23T12:51:17.720Z,33.60
2022-12-23T12:54:27.868Z,38.97
2022-12-23T12:57:33.209Z,35.23
2022-12-23T13:00:48.930Z,43.23
2022-12-23T13:04:12.019Z,42.27
2022-12-23T13:07:24.453Z,36.43
2022-12-23T13:10:38.080Z,39.80
2022-12-23T13:13:51.094Z,39.07
2022-12-23T13:17:03.701Z,34.83
2022-12-23T13:20:15.969Z,38.53
2022-12-23T13:23:43.392Z,45.97
2022-12-23T13:26:58.763Z,35.33
2022-12-23T13:30:06.797Z,36.57
2022-12-23T13:33:22.612Z,39.43
2022-12-23T13:36:42.303Z,35.23
2022-12-23T13:39:56.808Z,33.40
2022-12-23T13:43:05.840Z,35.20
2022-12-23T13:46:16.954Z,32.23
2022-12-23T13:49:25.748Z,33.23
2022-12-23T13:52:39.836Z,30.83
2022-12-23T13:56:09.626Z,27.57
2022-12-23T13:59:13.960Z,29.40
2022-12-23T14:02:44.459Z,34.17
2022-12-23T14:05:50.521Z,31.07
2022-12-23T14:08:55.117Z,29.40
2022-12-23T14:12:11.578Z,32.83
2022-12-23T14:15:48.965Z,32.93
2022-12-23T14:19:23.974Z,33.30
2022-12-23T14:22:40.087Z,29.90
2022-12-23T14:26:04.600Z,30.90
2022-12-23T14:29:38.206Z,32.13
2022-12-23T14:32:47.993Z,34.10
2022-12-23T14:35:53.898Z,32.40
2022-12-23T14:39:32.471Z,27.50
2022-12-23T14:42:36.544Z,30.57
2022-12-23T14:45:44.799Z,29.83
2022-12-23T14:49:38.332Z,30.63
2022-12-23T14:53:00.462Z,30.03
2022-12-23T14:56:21.594Z,33.03
2022-12-23T14:59:35.272Z,31.67
2022-12-23T15:02:41.781Z,35.20
2022-12-23T15:05:44.708Z,32.40
2022-12-23T15:08:49.973Z,31.43
2022-12-23T15:11:54.596Z,32.90
2022-12-23T15:15:00.246Z,29.23
2022-12-23T15:18:06.569Z,33.80
2022-12-23T15:21:13.063Z,32.43
2022-12-23T15:24:17.772Z,31.40
2022-12-23T15:27:30.074Z,29.13
2022-12-23T15:30:36.979Z,29.93
2022-12-23T15:37:04.837Z,29.83
2022-12-23T15:40:23.163Z,28.73
2022-12-23T15:43:25.879Z,38.10
2022-12-23T15:46:30.480Z,31.60
2022-12-23T15:49:34.771Z,31.23
2022-12-23T15:52:40.258Z,32.30
2022-12-23T15:55:43.055Z,33.33
2022-12-23T15:58:45.747Z,35.80
2022-12-23T16:01:48.622Z,33.17
2022-12-23T16:04:57.219Z,30.73
2022-12-23T16:08:28.478Z,27.70
2022-12-23T16:11:42.500Z,29.50
2022-12-23T16:14:53.456Z,26.93
2022-12-23T16:18:14.854Z,29.40
2022-12-23T16:21:18.785Z,30.17
2022-12-23T16:24:21.839Z,32.20
2022-12-23T16:27:34.354Z,34.47
2022-12-23T16:30:39.261Z,29.73
2022-12-23T16:33:44.604Z,30.67
2022-12-23T16:36:48.617Z,31.67
2022-12-23T16:39:51.260Z,31.83
2022-12-23T16:42:53.852Z,30.50
2022-12-23T16:45:58.236Z,33.53
2022-12-23T16:49:04.763Z,31.07
2022-12-23T16:52:14.081Z,28.60
2022-12-23T16:55:18.976Z,29.30
2022-12-23T16:58:21.586Z,32.00
2022-12-23T17:01:26.828Z,30.37
2022-12-23T17:04:29.440Z,31.53
2022-12-23T17:07:33.382Z,25.87
2022-12-23T17:10:36.681Z,29.20
2022-12-23T17:13:39.639Z,29.03
2022-12-23T17:16:42.283Z,26.57
2022-12-23T17:19:44.970Z,28.57
2022-12-23T17:22:52.018Z,31.30
2022-12-23T17:25:55.023Z,39.20
2022-12-23T17:28:57.593Z,37.67
2022-12-23T17:32:00.243Z,40.90
2022-12-23T17:35:02.864Z,47.93
2022-12-23T17:38:13.290Z,63.97
2022-12-23T17:41:23.352Z,56.40
2022-12-23T17:44:25.995Z,38.90
2022-12-23T17:47:28.624Z,39.30
2022-12-23T17:50:34.213Z,40.20
2022-12-23T17:53:38.163Z,40.13
2022-12-23T17:56:40.783Z,36.57
2022-12-23T17:59:47.705Z,44.80
2022-12-23T18:02:51.365Z,39.80
2022-12-23T18:06:01.208Z,41.57
2022-12-23T18:09:06.149Z,39.53
2022-12-23T18:12:24.904Z,37.53
2022-12-23T18:15:34.520Z,38.70
2022-12-23T18:18:45.827Z,40.00
2022-12-23T18:21:49.797Z,37.47
2022-12-23T18:24:58.904Z,37.93
2022-12-23T18:28:02.031Z,36.10
2022-12-23T18:31:04.795Z,32.27
2022-12-23T18:34:07.463Z,39.30
2022-12-23T18:37:10.112Z,37.33
2022-12-23T18:40:14.463Z,34.30
2022-12-23T18:43:20.688Z,37.03
2022-12-23T18:46:23.343Z,41.40
2022-12-23T18:49:25.976Z,37.00
2022-12-23T18:52:28.552Z,38.23
2022-12-23T18:55:32.749Z,36.10
2022-12-23T18:58:35.360Z,40.23
2022-12-23T19:01:37.968Z,40.87
2022-12-23T19:04:40.600Z,38.80
2022-12-23T19:07:43.422Z,39.30
2022-12-23T19:10:48.645Z,36.87
2022-12-23T19:13:51.539Z,36.03
2022-12-23T19:16:54.146Z,37.07
2022-12-23T19:19:56.742Z,37.13
2022-12-23T19:22:59.372Z,38.57
2022-12-23T19:26:05.764Z,38.60
2022-12-23T19:29:08.431Z,35.13
2022-12-23T19:32:11.019Z,29.07
2022-12-23T19:35:15.236Z,36.20
2022-12-23T19:38:17.853Z,33.50
2022-12-23T19:41:21.793Z,33.33
2022-12-23T19:44:24.405Z,34.23
2022-12-23T19:47:26.980Z,33.50
2022-12-23T19:50:29.603Z,34.23
2022-12-23T19:53:32.362Z,37.57
2022-12-23T19:56:36.342Z,30.80
2022-12-23T19:59:38.924Z,31.47
2022-12-23T20:02:41.604Z,30.03
2022-12-23T20:05:48.484Z,27.13
2022-12-23T20:08:56.356Z,33.77
2022-12-23T20:12:04.795Z,27.00
2022-12-23T20:15:08.478Z,26.53
2022-12-23T20:18:11.059Z,23.77
2022-12-23T20:21:14.152Z,25.40
2022-12-23T20:24:16.944Z,33.80
2022-12-23T20:27:26.021Z,31.23
2022-12-23T20:30:30.570Z,29.33
2022-12-23T20:33:33.164Z,28.23
2022-12-23T20:36:37.437Z,26.87
2022-12-23T20:39:40.122Z,29.63
2022-12-23T20:42:44.410Z,23.77
2022-12-23T20:45:47.223Z,31.60
2022-12-23T20:48:50.423Z,24.60
2022-12-23T20:51:53.001Z,28.70
2022-12-23T20:54:56.494Z,28.33
2022-12-23T20:58:20.597Z,26.27
2022-12-23T21:01:24.472Z,27.37
2022-12-23T21:04:27.288Z,21.53
2022-12-23T21:07:29.889Z,22.87
2022-12-23T21:10:32.580Z,21.63
2022-12-23T21:13:37.001Z,21.70
2022-12-23T21:16:40.745Z,20.33
2022-12-23T21:19:43.477Z,20.27
2022-12-23T21:22:46.258Z,21.10
2022-12-23T21:25:48.850Z,20.23
2022-12-23T21:28:54.569Z,19.10
2022-12-23T21:31:57.248Z,20.83
2022-12-23T21:35:01.505Z,15.50
2022-12-23T21:38:04.125Z,18.97
2022-12-23T21:41:08.614Z,17.13
2022-12-23T21:44:14.503Z,17.63
2022-12-23T21:47:17.261Z,23.30
2022-12-23T21:50:20.020Z,17.07
2022-12-23T21:53:22.845Z,18.33
2022-12-23T21:56:28.662Z,28.97
2022-12-23T21:59:35.203Z,18.27
2022-12-23T22:02:38.222Z,17.83
2022-12-23T22:05:40.889Z,19.63
2022-12-23T22:08:44.174Z,16.50
2022-12-23T22:11:47.864Z,16.90
2022-12-23T22:14:51.848Z,18.37
2022-12-23T22:17:54.449Z,17.50
2022-12-23T22:20:57.037Z,22.73
2022-12-23T22:24:00.565Z,18.57
2022-12-23T22:27:03.300Z,21.27
2022-12-23T22:30:08.739Z,22.67
2022-12-23T22:33:11.306Z,21.13
2022-12-23T22:36:15.000Z,21.10
2022-12-23T22:39:21.700Z,26.27
2022-12-23T22:42:24.695Z,20.03
2022-12-23T22:45:28.645Z,21.77
2022-12-23T22:48:31.585Z,22.60
2022-12-23T22:51:34.257Z,22.03
2022-12-23T22:54:36.835Z,19.77
2022-12-23T22:57:39.484Z,21.00
2022-12-23T23:00:43.404Z,22.37
2022-12-23T23:03:45.966Z,22.53
2022-12-23T23:06:49.104Z,20.90
2022-12-23T23:09:51.705Z,19.17
2022-12-23T23:12:54.271Z,19.43
2022-12-23T23:15:59.013Z,20.60
2022-12-23T23:19:02.020Z,19.30
2022-12-23T23:22:04.628Z,17.90
2022-12-23T23:25:07.961Z,17.93
2022-12-23T23:28:11.683Z,20.17
2022-12-23T23:34:38.284Z,18.57
2022-12-23T23:37:40.860Z,16.93
2022-12-23T23:40:43.446Z,17.83
2022-12-23T23:43:46.017Z,18.07
2022-12-23T23:46:50.043Z,17.63
2022-12-23T23:49:52.728Z,16.57
2022-12-23T23:52:55.776Z,19.57
2022-12-23T23:56:02.690Z,17.47
2022-12-23T23:59:05.355Z,18.83
